KHRL

Valley International Airport

Harlingen, Texas, USA
KHRL 221126Z 2212/2312 17021G30KT P6SM FEW040 FM221400 18029G39KT P6SM SCT040 FM222300 17020G30KT P6SM BKN025 FM230300 16010KT P6SM BKN020 FM230800 32012KT P6SM -RA OVC020
Issued Valid From Valid To
Jan-22 @ 11:26 UTC
(6 hours ago)
Jan-22 @ 12:00 UTC
(5 hours ago)
Jan-23 @ 12:00 UTC
(in 19 hours)
Expired Click to View Jan-22 @ 12:00 to Jan-22 @ 14:00
KHRL 221126Z 2212/2312 17021G30KT P6SM FEW040
Wind Visibility Clouds
170° at 21 knots
 Gusting to 30 knots
Greater than 6 miles
  • Few at 4,000' AGL
From Jan-22 @ 14:00 to Jan-22 @ 23:00
FM221400 18029G39KT P6SM SCT040
Wind Visibility Clouds
180° at 29 knots
 Gusting to 39 knots
Greater than 6 miles
  • Scattered at 4,000' AGL
From Jan-22 @ 23:00 to Jan-23 @ 03:00
FM222300 17020G30KT P6SM BKN025
Wind Visibility Clouds
170° at 20 knots
 Gusting to 30 knots
Greater than 6 miles
  • Broken at 2,500' AGL
From Jan-23 @ 03:00 to Jan-23 @ 08:00
FM230300 16010KT P6SM BKN020
Wind Visibility Clouds
160° at 10 knots Greater than 6 miles
  • Broken at 2,000' AGL
From Jan-23 @ 08:00 to Jan-23 @ 12:00
FM230800 32012KT P6SM -RA OVC020
Wind Visibility Clouds Conditions
320° at 12 knots Greater than 6 miles
  • Overcast at 2,000' AGL
  • Light Rain
KHRL 221126Z 2212/2312 17021G30KT P6SM FEW040 FM221400 18029G39KT P6SM SCT040 FM222300 17020G30KT P6SM BKN025 FM230300 16010KT P6SM BKN020 FM230800 32012KT P6SM -RA OVC020
Issued Jan-22 @ 11:26 UTC
(6 hours ago)
Valid From Jan-22 @ 12:00 UTC
(5 hours ago)
Valid To Jan-23 @ 12:00 UTC
(in 19 hours)
Jan-22 @ 12:00 - Jan-22 @ 14:00
Wind Visibility
170° at 21 knots
 Gusting to 30 knots
Greater than 6 miles
Clouds
  • Few at 4,000' AGL
From Jan-22 @ 14:00 - Jan-22 @ 23:00
Wind Visibility
180° at 29 knots
 Gusting to 39 knots
Greater than 6 miles
Clouds
  • Scattered at 4,000' AGL
From Jan-22 @ 23:00 - Jan-23 @ 03:00
Wind Visibility
170° at 20 knots
 Gusting to 30 knots
Greater than 6 miles
Clouds
  • Broken at 2,500' AGL
From Jan-23 @ 03:00 - Jan-23 @ 08:00
Wind Visibility
160° at 10 knots Greater than 6 miles
Clouds
  • Broken at 2,000' AGL
From Jan-23 @ 08:00 - Jan-23 @ 12:00
Wind Visibility
320° at 12 knots Greater than 6 miles
Clouds
  • Overcast at 2,000' AGL
Conditions
  • Light Rain